sensor_id;sensor_type;location;lat;lon;timestamp;P1;durP1;ratioP1;P2;durP2;ratioP2
36669;SDS011;22662;47.412;9.742;2022-07-22T00:02:06;9.35;;;8.45;;
36669;SDS011;22662;47.412;9.742;2022-07-22T00:04:31;9.07;;;8.18;;
36669;SDS011;22662;47.412;9.742;2022-07-22T00:06:58;9.48;;;8.20;;
36669;SDS011;22662;47.412;9.742;2022-07-22T00:09:24;9.45;;;8.43;;
36669;SDS011;22662;47.412;9.742;2022-07-22T00:11:50;8.80;;;8.02;;
36669;SDS011;22662;47.412;9.742;2022-07-22T00:14:16;9.52;;;8.50;;
36669;SDS011;22662;47.412;9.742;2022-07-22T00:16:42;9.32;;;8.43;;
36669;SDS011;22662;47.412;9.742;2022-07-22T00:19:08;8.88;;;8.00;;
36669;SDS011;22662;47.412;9.742;2022-07-22T00:21:34;9.18;;;8.38;;
36669;SDS011;22662;47.412;9.742;2022-07-22T00:24:00;9.63;;;8.63;;
36669;SDS011;22662;47.412;9.742;2022-07-22T00:26:26;9.20;;;8.27;;
36669;SDS011;22662;47.412;9.742;2022-07-22T00:28:52;9.32;;;8.43;;
36669;SDS011;22662;47.412;9.742;2022-07-22T00:31:18;9.40;;;8.50;;
36669;SDS011;22662;47.412;9.742;2022-07-22T00:33:44;10.27;;;9.20;;
36669;SDS011;22662;47.412;9.742;2022-07-22T00:36:10;11.15;;;10.05;;
36669;SDS011;22662;47.412;9.742;2022-07-22T00:38:37;10.60;;;9.60;;
36669;SDS011;22662;47.412;9.742;2022-07-22T00:41:03;10.52;;;9.63;;
36669;SDS011;22662;47.412;9.742;2022-07-22T00:43:48;10.73;;;9.82;;
36669;SDS011;22662;47.412;9.742;2022-07-22T00:46:24;10.50;;;9.50;;
36669;SDS011;22662;47.412;9.742;2022-07-22T00:48:51;10.00;;;9.10;;
36669;SDS011;22662;47.412;9.742;2022-07-22T00:51:18;10.75;;;9.75;;
36669;SDS011;22662;47.412;9.742;2022-07-22T00:53:45;11.23;;;9.45;;
36669;SDS011;22662;47.412;9.742;2022-07-22T00:56:12;10.32;;;9.30;;
36669;SDS011;22662;47.412;9.742;2022-07-22T00:58:38;10.27;;;9.35;;
36669;SDS011;22662;47.412;9.742;2022-07-22T01:01:05;10.18;;;9.23;;
36669;SDS011;22662;47.412;9.742;2022-07-22T01:03:31;9.80;;;8.98;;
36669;SDS011;22662;47.412;9.742;2022-07-22T01:05:57;10.07;;;9.07;;
36669;SDS011;22662;47.412;9.742;2022-07-22T01:08:22;10.52;;;9.60;;
36669;SDS011;22662;47.412;9.742;2022-07-22T01:10:48;9.77;;;8.88;;
36669;SDS011;22662;47.412;9.742;2022-07-22T01:13:14;10.88;;;9.88;;
36669;SDS011;22662;47.412;9.742;2022-07-22T01:15:40;9.82;;;8.77;;
36669;SDS011;22662;47.412;9.742;2022-07-22T01:18:06;9.50;;;8.50;;
36669;SDS011;22662;47.412;9.742;2022-07-22T01:20:34;9.35;;;8.45;;
36669;SDS011;22662;47.412;9.742;2022-07-22T01:23:00;9.50;;;8.43;;
36669;SDS011;22662;47.412;9.742;2022-07-22T01:25:26;9.82;;;8.93;;
36669;SDS011;22662;47.412;9.742;2022-07-22T01:27:53;9.75;;;8.77;;
36669;SDS011;22662;47.412;9.742;2022-07-22T01:30:19;10.00;;;9.00;;
36669;SDS011;22662;47.412;9.742;2022-07-22T01:32:45;10.20;;;9.20;;
36669;SDS011;22662;47.412;9.742;2022-07-22T01:35:11;10.00;;;9.10;;
36669;SDS011;22662;47.412;9.742;2022-07-22T01:37:37;9.85;;;8.85;;
36669;SDS011;22662;47.412;9.742;2022-07-22T01:40:03;9.98;;;8.80;;
36669;SDS011;22662;47.412;9.742;2022-07-22T01:42:29;10.07;;;9.18;;
36669;SDS011;22662;47.412;9.742;2022-07-22T01:44:55;10.38;;;9.38;;
36669;SDS011;22662;47.412;9.742;2022-07-22T01:47:21;10.30;;;9.23;;
36669;SDS011;22662;47.412;9.742;2022-07-22T01:49:47;10.05;;;9.00;;
36669;SDS011;22662;47.412;9.742;2022-07-22T01:52:13;10.05;;;9.18;;
36669;SDS011;22662;47.412;9.742;2022-07-22T01:54:39;10.25;;;9.15;;
36669;SDS011;22662;47.412;9.742;2022-07-22T01:57:05;10.63;;;9.20;;
36669;SDS011;22662;47.412;9.742;2022-07-22T01:59:31;9.27;;;8.38;;
36669;SDS011;22662;47.412;9.742;2022-07-22T02:01:56;9.57;;;8.70;;
36669;SDS011;22662;47.412;9.742;2022-07-22T02:04:22;9.27;;;8.38;;
36669;SDS011;22662;47.412;9.742;2022-07-22T02:06:48;10.02;;;9.02;;
36669;SDS011;22662;47.412;9.742;2022-07-22T02:09:14;9.93;;;9.00;;
36669;SDS011;22662;47.412;9.742;2022-07-22T02:11:40;10.10;;;9.10;;
36669;SDS011;22662;47.412;9.742;2022-07-22T02:14:06;10.32;;;8.70;;
36669;SDS011;22662;47.412;9.742;2022-07-22T02:16:35;10.80;;;9.80;;
36669;SDS011;22662;47.412;9.742;2022-07-22T02:19:01;10.05;;;9.05;;
36669;SDS011;22662;47.412;9.742;2022-07-22T02:21:27;10.00;;;8.98;;
36669;SDS011;22662;47.412;9.742;2022-07-22T02:23:53;10.13;;;9.02;;
36669;SDS011;22662;47.412;9.742;2022-07-22T02:26:18;9.93;;;9.00;;
36669;SDS011;22662;47.412;9.742;2022-07-22T02:28:45;9.90;;;8.90;;
36669;SDS011;22662;47.412;9.742;2022-07-22T02:31:11;9.68;;;8.77;;
36669;SDS011;22662;47.412;9.742;2022-07-22T02:33:37;10.50;;;9.50;;
36669;SDS011;22662;47.412;9.742;2022-07-22T02:36:03;9.80;;;8.80;;
36669;SDS011;22662;47.412;9.742;2022-07-22T02:38:29;9.80;;;8.90;;
36669;SDS011;22662;47.412;9.742;2022-07-22T02:40:55;9.50;;;8.63;;
36669;SDS011;22662;47.412;9.742;2022-07-22T02:43:21;9.93;;;8.93;;
36669;SDS011;22662;47.412;9.742;2022-07-22T02:45:47;9.75;;;8.75;;
36669;SDS011;22662;47.412;9.742;2022-07-22T02:48:12;9.45;;;8.55;;
36669;SDS011;22662;47.412;9.742;2022-07-22T02:50:38;10.15;;;9.20;;
36669;SDS011;22662;47.412;9.742;2022-07-22T02:53:11;9.73;;;8.73;;
36669;SDS011;22662;47.412;9.742;2022-07-22T02:55:37;9.63;;;8.73;;
36669;SDS011;22662;47.412;9.742;2022-07-22T02:58:04;9.70;;;8.75;;
36669;SDS011;22662;47.412;9.742;2022-07-22T03:00:32;9.98;;;9.07;;
36669;SDS011;22662;47.412;9.742;2022-07-22T03:03:02;9.55;;;8.75;;
36669;SDS011;22662;47.412;9.742;2022-07-22T03:05:29;10.40;;;9.38;;
36669;SDS011;22662;47.412;9.742;2022-07-22T03:07:55;9.90;;;9.00;;
36669;SDS011;22662;47.412;9.742;2022-07-22T03:10:21;9.70;;;8.70;;
36669;SDS011;22662;47.412;9.742;2022-07-22T03:12:47;10.23;;;9.27;;
36669;SDS011;22662;47.412;9.742;2022-07-22T03:15:13;9.80;;;8.90;;
36669;SDS011;22662;47.412;9.742;2022-07-22T03:17:39;10.32;;;9.50;;
36669;SDS011;22662;47.412;9.742;2022-07-22T03:20:06;10.43;;;8.75;;
36669;SDS011;22662;47.412;9.742;2022-07-22T03:22:34;9.75;;;8.88;;
36669;SDS011;22662;47.412;9.742;2022-07-22T03:25:00;9.93;;;8.95;;
36669;SDS011;22662;47.412;9.742;2022-07-22T03:27:27;10.00;;;9.10;;
36669;SDS011;22662;47.412;9.742;2022-07-22T03:29:52;10.27;;;9.27;;
36669;SDS011;22662;47.412;9.742;2022-07-22T03:32:18;10.25;;;9.20;;
36669;SDS011;22662;47.412;9.742;2022-07-22T03:34:44;10.30;;;9.38;;
36669;SDS011;22662;47.412;9.742;2022-07-22T03:37:10;9.93;;;8.98;;
36669;SDS011;22662;47.412;9.742;2022-07-22T03:39:36;9.70;;;8.90;;
36669;SDS011;22662;47.412;9.742;2022-07-22T03:42:02;9.30;;;8.40;;
36669;SDS011;22662;47.412;9.742;2022-07-22T03:44:28;9.90;;;8.90;;
36669;SDS011;22662;47.412;9.742;2022-07-22T03:46:54;11.00;;;9.23;;
36669;SDS011;22662;47.412;9.742;2022-07-22T03:49:20;9.93;;;8.93;;
36669;SDS011;22662;47.412;9.742;2022-07-22T03:51:46;11.93;;;9.57;;
36669;SDS011;22662;47.412;9.742;2022-07-22T03:54:12;10.02;;;9.13;;
36669;SDS011;22662;47.412;9.742;2022-07-22T03:56:38;9.52;;;8.68;;
36669;SDS011;22662;47.412;9.742;2022-07-22T03:59:04;9.55;;;8.75;;
36669;SDS011;22662;47.412;9.742;2022-07-22T04:01:30;10.65;;;9.65;;
36669;SDS011;22662;47.412;9.742;2022-07-22T04:03:56;9.95;;;8.57;;
36669;SDS011;22662;47.412;9.742;2022-07-22T04:06:22;10.38;;;8.73;;
36669;SDS011;22662;47.412;9.742;2022-07-22T04:08:48;9.20;;;8.40;;
36669;SDS011;22662;47.412;9.742;2022-07-22T04:11:14;10.65;;;9.55;;
36669;SDS011;22662;47.412;9.742;2022-07-22T04:13:40;9.25;;;8.32;;
36669;SDS011;22662;47.412;9.742;2022-07-22T04:16:06;10.75;;;8.57;;
36669;SDS011;22662;47.412;9.742;2022-07-22T04:18:32;9.68;;;8.77;;
36669;SDS011;22662;47.412;9.742;2022-07-22T04:20:58;9.50;;;8.50;;
36669;SDS011;22662;47.412;9.742;2022-07-22T04:23:24;9.30;;;8.60;;
36669;SDS011;22662;47.412;9.742;2022-07-22T04:25:50;10.32;;;9.32;;
36669;SDS011;22662;47.412;9.742;2022-07-22T04:28:16;11.10;;;10.00;;
36669;SDS011;22662;47.412;9.742;2022-07-22T04:30:43;11.27;;;10.23;;
36669;SDS011;22662;47.412;9.742;2022-07-22T04:33:09;11.50;;;10.50;;
36669;SDS011;22662;47.412;9.742;2022-07-22T04:35:35;11.20;;;10.07;;
36669;SDS011;22662;47.412;9.742;2022-07-22T04:38:01;10.55;;;9.68;;
36669;SDS011;22662;47.412;9.742;2022-07-22T04:40:27;10.57;;;9.60;;
36669;SDS011;22662;47.412;9.742;2022-07-22T04:42:53;12.45;;;9.82;;
36669;SDS011;22662;47.412;9.742;2022-07-22T04:45:19;9.75;;;8.82;;
36669;SDS011;22662;47.412;9.742;2022-07-22T04:47:44;9.93;;;8.95;;
36669;SDS011;22662;47.412;9.742;2022-07-22T04:50:10;9.93;;;9.02;;
36669;SDS011;22662;47.412;9.742;2022-07-22T04:52:36;10.60;;;9.70;;
36669;SDS011;22662;47.412;9.742;2022-07-22T04:55:02;10.45;;;9.13;;
36669;SDS011;22662;47.412;9.742;2022-07-22T04:57:28;9.93;;;9.02;;
36669;SDS011;22662;47.412;9.742;2022-07-22T04:59:54;10.07;;;9.07;;
36669;SDS011;22662;47.412;9.742;2022-07-22T05:02:20;10.68;;;9.63;;
36669;SDS011;22662;47.412;9.742;2022-07-22T05:04:46;10.50;;;9.60;;
36669;SDS011;22662;47.412;9.742;2022-07-22T05:07:12;10.32;;;8.80;;
36669;SDS011;22662;47.412;9.742;2022-07-22T05:09:38;8.88;;;8.07;;
36669;SDS011;22662;47.412;9.742;2022-07-22T05:12:03;8.82;;;8.02;;
36669;SDS011;22662;47.412;9.742;2022-07-22T05:14:29;8.60;;;7.80;;
36669;SDS011;22662;47.412;9.742;2022-07-22T05:16:55;9.35;;;8.35;;
36669;SDS011;22662;47.412;9.742;2022-07-22T05:19:21;9.93;;;8.93;;
36669;SDS011;22662;47.412;9.742;2022-07-22T05:21:47;11.30;;;10.07;;
36669;SDS011;22662;47.412;9.742;2022-07-22T05:24:13;12.65;;;11.35;;
36669;SDS011;22662;47.412;9.742;2022-07-22T05:26:39;11.10;;;10.00;;
36669;SDS011;22662;47.412;9.742;2022-07-22T05:29:05;10.70;;;9.70;;
36669;SDS011;22662;47.412;9.742;2022-07-22T05:31:31;11.77;;;10.68;;
36669;SDS011;22662;47.412;9.742;2022-07-22T05:33:57;12.25;;;11.05;;
36669;SDS011;22662;47.412;9.742;2022-07-22T05:36:23;12.48;;;11.38;;
36669;SDS011;22662;47.412;9.742;2022-07-22T05:38:49;12.30;;;11.15;;
36669;SDS011;22662;47.412;9.742;2022-07-22T05:41:14;12.57;;;11.32;;
36669;SDS011;22662;47.412;9.742;2022-07-22T05:43:40;12.35;;;11.15;;
36669;SDS011;22662;47.412;9.742;2022-07-22T05:46:06;12.45;;;9.88;;
36669;SDS011;22662;47.412;9.742;2022-07-22T05:48:32;9.20;;;8.30;;
36669;SDS011;22662;47.412;9.742;2022-07-22T05:50:59;8.88;;;8.07;;
36669;SDS011;22662;47.412;9.742;2022-07-22T05:53:25;8.18;;;7.38;;
36669;SDS011;22662;47.412;9.742;2022-07-22T05:55:51;8.63;;;7.72;;
36669;SDS011;22662;47.412;9.742;2022-07-22T05:58:17;9.77;;;8.82;;
36669;SDS011;22662;47.412;9.742;2022-07-22T06:00:46;9.80;;;8.90;;
36669;SDS011;22662;47.412;9.742;2022-07-22T06:03:12;9.55;;;8.55;;
36669;SDS011;22662;47.412;9.742;2022-07-22T06:05:37;9.10;;;8.30;;
36669;SDS011;22662;47.412;9.742;2022-07-22T06:08:04;8.73;;;7.82;;
36669;SDS011;22662;47.412;9.742;2022-07-22T06:10:30;10.70;;;7.93;;
36669;SDS011;22662;47.412;9.742;2022-07-22T06:12:56;8.93;;;8.07;;
36669;SDS011;22662;47.412;9.742;2022-07-22T06:15:21;7.97;;;7.28;;
36669;SDS011;22662;47.412;9.742;2022-07-22T06:17:47;8.70;;;7.75;;
36669;SDS011;22662;47.412;9.742;2022-07-22T06:20:13;8.75;;;7.95;;
36669;SDS011;22662;47.412;9.742;2022-07-22T06:22:40;8.50;;;7.70;;
36669;SDS011;22662;47.412;9.742;2022-07-22T06:25:06;8.60;;;7.85;;
36669;SDS011;22662;47.412;9.742;2022-07-22T06:27:33;8.73;;;7.65;;
36669;SDS011;22662;47.412;9.742;2022-07-22T06:29:59;10.15;;;8.02;;
36669;SDS011;22662;47.412;9.742;2022-07-22T06:32:25;8.82;;;7.93;;
36669;SDS011;22662;47.412;9.742;2022-07-22T06:34:50;8.60;;;7.75;;
36669;SDS011;22662;47.412;9.742;2022-07-22T06:37:16;9.40;;;8.02;;
36669;SDS011;22662;47.412;9.742;2022-07-22T06:39:42;8.73;;;7.85;;
36669;SDS011;22662;47.412;9.742;2022-07-22T06:42:08;10.05;;;8.00;;
36669;SDS011;22662;47.412;9.742;2022-07-22T06:44:34;9.88;;;8.88;;
36669;SDS011;22662;47.412;9.742;2022-07-22T06:47:00;9.27;;;8.32;;
36669;SDS011;22662;47.412;9.742;2022-07-22T06:49:26;9.55;;;8.65;;
36669;SDS011;22662;47.412;9.742;2022-07-22T06:51:52;9.57;;;8.77;;
36669;SDS011;22662;47.412;9.742;2022-07-22T06:54:17;9.90;;;8.90;;
36669;SDS011;22662;47.412;9.742;2022-07-22T06:56:44;9.50;;;8.57;;
36669;SDS011;22662;47.412;9.742;2022-07-22T06:59:10;11.85;;;9.00;;
36669;SDS011;22662;47.412;9.742;2022-07-22T07:01:36;9.65;;;8.55;;
36669;SDS011;22662;47.412;9.742;2022-07-22T07:04:02;9.57;;;8.68;;
36669;SDS011;22662;47.412;9.742;2022-07-22T07:06:28;10.40;;;9.27;;
36669;SDS011;22662;47.412;9.742;2022-07-22T07:08:53;11.07;;;10.07;;
36669;SDS011;22662;47.412;9.742;2022-07-22T07:11:19;11.57;;;10.18;;
36669;SDS011;22662;47.412;9.742;2022-07-22T07:13:46;12.52;;;10.60;;
36669;SDS011;22662;47.412;9.742;2022-07-22T07:16:12;11.73;;;10.50;;
36669;SDS011;22662;47.412;9.742;2022-07-22T07:18:38;12.55;;;11.18;;
36669;SDS011;22662;47.412;9.742;2022-07-22T07:21:04;12.25;;;10.95;;
36669;SDS011;22662;47.412;9.742;2022-07-22T07:23:30;12.65;;;10.98;;
36669;SDS011;22662;47.412;9.742;2022-07-22T07:25:56;12.00;;;10.80;;
36669;SDS011;22662;47.412;9.742;2022-07-22T07:28:22;12.52;;;11.32;;
36669;SDS011;22662;47.412;9.742;2022-07-22T07:30:48;12.02;;;10.82;;
36669;SDS011;22662;47.412;9.742;2022-07-22T07:33:14;11.90;;;10.52;;
36669;SDS011;22662;47.412;9.742;2022-07-22T07:35:40;11.95;;;10.45;;
36669;SDS011;22662;47.412;9.742;2022-07-22T07:38:06;11.73;;;10.57;;
36669;SDS011;22662;47.412;9.742;2022-07-22T07:40:32;12.23;;;10.57;;
36669;SDS011;22662;47.412;9.742;2022-07-22T07:42:59;11.85;;;10.75;;
36669;SDS011;22662;47.412;9.742;2022-07-22T07:45:25;11.63;;;10.55;;
36669;SDS011;22662;47.412;9.742;2022-07-22T07:47:51;12.38;;;11.02;;
36669;SDS011;22662;47.412;9.742;2022-07-22T07:50:16;13.27;;;11.65;;
36669;SDS011;22662;47.412;9.742;2022-07-22T07:52:44;12.43;;;11.15;;
36669;SDS011;22662;47.412;9.742;2022-07-22T07:55:13;12.50;;;11.15;;
36669;SDS011;22662;47.412;9.742;2022-07-22T07:57:40;12.48;;;11.27;;
36669;SDS011;22662;47.412;9.742;2022-07-22T08:00:08;12.77;;;11.52;;
36669;SDS011;22662;47.412;9.742;2022-07-22T08:02:35;11.95;;;10.85;;
36669;SDS011;22662;47.412;9.742;2022-07-22T08:05:02;12.93;;;11.63;;
36669;SDS011;22662;47.412;9.742;2022-07-22T08:07:28;12.13;;;10.93;;
36669;SDS011;22662;47.412;9.742;2022-07-22T08:09:54;11.93;;;10.73;;
36669;SDS011;22662;47.412;9.742;2022-07-22T08:12:20;12.07;;;10.98;;
36669;SDS011;22662;47.412;9.742;2022-07-22T08:14:46;12.10;;;10.93;;
36669;SDS011;22662;47.412;9.742;2022-07-22T08:17:12;12.27;;;11.07;;
36669;SDS011;22662;47.412;9.742;2022-07-22T08:19:38;11.80;;;10.60;;
36669;SDS011;22662;47.412;9.742;2022-07-22T08:22:04;11.73;;;10.55;;
36669;SDS011;22662;47.412;9.742;2022-07-22T08:24:30;12.65;;;11.35;;
36669;SDS011;22662;47.412;9.742;2022-07-22T08:26:56;14.40;;;11.90;;
36669;SDS011;22662;47.412;9.742;2022-07-22T08:29:21;12.45;;;11.15;;
36669;SDS011;22662;47.412;9.742;2022-07-22T08:31:47;11.30;;;10.20;;
36669;SDS011;22662;47.412;9.742;2022-07-22T08:34:13;11.65;;;10.45;;
36669;SDS011;22662;47.412;9.742;2022-07-22T08:36:39;11.45;;;10.35;;
36669;SDS011;22662;47.412;9.742;2022-07-22T08:39:05;11.45;;;10.32;;
36669;SDS011;22662;47.412;9.742;2022-07-22T08:41:36;11.57;;;10.48;;
36669;SDS011;22662;47.412;9.742;2022-07-22T08:44:04;10.90;;;9.80;;
36669;SDS011;22662;47.412;9.742;2022-07-22T08:46:31;11.05;;;9.95;;
36669;SDS011;22662;47.412;9.742;2022-07-22T08:48:58;12.43;;;10.35;;
36669;SDS011;22662;47.412;9.742;2022-07-22T08:51:26;10.57;;;9.57;;
36669;SDS011;22662;47.412;9.742;2022-07-22T08:53:53;11.25;;;10.15;;
36669;SDS011;22662;47.412;9.742;2022-07-22T08:56:19;11.05;;;9.95;;
36669;SDS011;22662;47.412;9.742;2022-07-22T08:58:45;12.50;;;10.40;;
36669;SDS011;22662;47.412;9.742;2022-07-22T09:01:13;11.23;;;10.05;;
36669;SDS011;22662;47.412;9.742;2022-07-22T09:03:45;11.15;;;10.10;;
36669;SDS011;22662;47.412;9.742;2022-07-22T09:06:14;12.52;;;10.02;;
36669;SDS011;22662;47.412;9.742;2022-07-22T09:08:51;11.32;;;9.98;;
36669;SDS011;22662;47.412;9.742;2022-07-22T09:11:19;10.90;;;9.88;;
36669;SDS011;22662;47.412;9.742;2022-07-22T09:13:45;10.80;;;9.90;;
36669;SDS011;22662;47.412;9.742;2022-07-22T09:16:12;10.15;;;9.27;;
36669;SDS011;22662;47.412;9.742;2022-07-22T09:18:51;10.77;;;9.77;;
36669;SDS011;22662;47.412;9.742;2022-07-22T09:21:19;11.43;;;9.90;;
36669;SDS011;22662;47.412;9.742;2022-07-22T09:23:46;11.68;;;10.25;;
36669;SDS011;22662;47.412;9.742;2022-07-22T09:29:00;10.43;;;9.52;;
36669;SDS011;22662;47.412;9.742;2022-07-22T09:31:27;11.25;;;10.15;;
36669;SDS011;22662;47.412;9.742;2022-07-22T09:33:56;11.60;;;9.65;;
36669;SDS011;22662;47.412;9.742;2022-07-22T09:36:22;11.68;;;10.57;;
36669;SDS011;22662;47.412;9.742;2022-07-22T09:38:48;11.27;;;9.93;;
36669;SDS011;22662;47.412;9.742;2022-07-22T09:41:15;10.82;;;9.82;;
36669;SDS011;22662;47.412;9.742;2022-07-22T09:43:41;11.63;;;10.43;;
36669;SDS011;22662;47.412;9.742;2022-07-22T09:46:07;11.45;;;10.35;;
36669;SDS011;22662;47.412;9.742;2022-07-22T09:48:34;12.00;;;10.80;;
36669;SDS011;22662;47.412;9.742;2022-07-22T09:51:05;11.65;;;10.55;;
36669;SDS011;22662;47.412;9.742;2022-07-22T09:53:32;14.10;;;10.70;;
36669;SDS011;22662;47.412;9.742;2022-07-22T09:55:59;10.90;;;9.90;;
36669;SDS011;22662;47.412;9.742;2022-07-22T09:58:26;12.02;;;10.30;;
36669;SDS011;22662;47.412;9.742;2022-07-22T10:00:53;10.55;;;9.55;;
36669;SDS011;22662;47.412;9.742;2022-07-22T10:03:26;13.02;;;10.15;;
36669;SDS011;22662;47.412;9.742;2022-07-22T10:05:54;10.88;;;9.77;;
36669;SDS011;22662;47.412;9.742;2022-07-22T10:08:21;10.77;;;9.77;;
36669;SDS011;22662;47.412;9.742;2022-07-22T10:10:46;11.95;;;9.75;;
36669;SDS011;22662;47.412;9.742;2022-07-22T10:13:14;13.38;;;10.13;;
36669;SDS011;22662;47.412;9.742;2022-07-22T10:15:42;11.10;;;10.10;;
36669;SDS011;22662;47.412;9.742;2022-07-22T10:18:12;11.27;;;10.18;;
36669;SDS011;22662;47.412;9.742;2022-07-22T10:20:40;11.70;;;10.50;;
36669;SDS011;22662;47.412;9.742;2022-07-22T10:23:06;10.85;;;9.85;;
36669;SDS011;22662;47.412;9.742;2022-07-22T10:25:50;10.35;;;9.45;;
36669;SDS011;22662;47.412;9.742;2022-07-22T10:30:46;10.48;;;9.48;;
36669;SDS011;22662;47.412;9.742;2022-07-22T10:33:12;9.98;;;8.93;;
36669;SDS011;22662;47.412;9.742;2022-07-22T10:35:53;10.35;;;8.82;;
36669;SDS011;22662;47.412;9.742;2022-07-22T10:38:20;10.25;;;9.18;;
36669;SDS011;22662;47.412;9.742;2022-07-22T10:43:15;9.88;;;8.35;;
36669;SDS011;22662;47.412;9.742;2022-07-22T10:45:46;9.38;;;8.43;;
36669;SDS011;22662;47.412;9.742;2022-07-22T10:48:19;9.45;;;8.60;;
36669;SDS011;22662;47.412;9.742;2022-07-22T10:50:53;9.27;;;8.20;;
36669;SDS011;22662;47.412;9.742;2022-07-22T10:56:15;10.40;;;9.32;;
36669;SDS011;22662;47.412;9.742;2022-07-22T10:59:08;9.55;;;8.55;;
36669;SDS011;22662;47.412;9.742;2022-07-22T11:01:36;10.27;;;9.32;;
36669;SDS011;22662;47.412;9.742;2022-07-22T11:04:07;10.35;;;9.25;;
36669;SDS011;22662;47.412;9.742;2022-07-22T11:06:38;11.00;;;10.00;;
36669;SDS011;22662;47.412;9.742;2022-07-22T11:09:06;11.35;;;9.93;;
36669;SDS011;22662;47.412;9.742;2022-07-22T11:14:10;12.00;;;10.80;;
36669;SDS011;22662;47.412;9.742;2022-07-22T11:17:06;11.57;;;10.48;;
36669;SDS011;22662;47.412;9.742;2022-07-22T11:19:33;11.40;;;10.40;;
36669;SDS011;22662;47.412;9.742;2022-07-22T11:22:04;11.35;;;10.25;;
36669;SDS011;22662;47.412;9.742;2022-07-22T11:24:34;10.95;;;9.88;;
36669;SDS011;22662;47.412;9.742;2022-07-22T11:27:02;10.80;;;9.82;;
36669;SDS011;22662;47.412;9.742;2022-07-22T11:29:35;11.07;;;10.07;;
36669;SDS011;22662;47.412;9.742;2022-07-22T11:32:08;11.75;;;10.55;;
36669;SDS011;22662;47.412;9.742;2022-07-22T11:34:36;12.43;;;10.52;;
36669;SDS011;22662;47.412;9.742;2022-07-22T11:37:03;9.68;;;8.77;;
36669;SDS011;22662;47.412;9.742;2022-07-22T11:39:30;11.00;;;9.10;;
36669;SDS011;22662;47.412;9.742;2022-07-22T11:41:57;10.10;;;9.10;;
36669;SDS011;22662;47.412;9.742;2022-07-22T11:44:26;9.77;;;8.88;;
36669;SDS011;22662;47.412;9.742;2022-07-22T11:46:54;9.98;;;9.02;;
36669;SDS011;22662;47.412;9.742;2022-07-22T11:49:23;10.10;;;9.20;;
36669;SDS011;22662;47.412;9.742;2022-07-22T11:51:50;9.43;;;8.52;;
36669;SDS011;22662;47.412;9.742;2022-07-22T11:54:16;10.88;;;9.30;;
36669;SDS011;22662;47.412;9.742;2022-07-22T11:56:42;10.80;;;9.10;;
36669;SDS011;22662;47.412;9.742;2022-07-22T11:59:11;9.27;;;8.40;;
36669;SDS011;22662;47.412;9.742;2022-07-22T12:01:38;10.85;;;8.63;;
36669;SDS011;22662;47.412;9.742;2022-07-22T12:04:06;10.63;;;9.75;;
36669;SDS011;22662;47.412;9.742;2022-07-22T12:06:34;10.18;;;9.27;;
36669;SDS011;22662;47.412;9.742;2022-07-22T12:11:33;9.95;;;9.05;;
36669;SDS011;22662;47.412;9.742;2022-07-22T12:14:14;9.80;;;8.50;;
36669;SDS011;22662;47.412;9.742;2022-07-22T12:16:41;9.73;;;8.77;;
36669;SDS011;22662;47.412;9.742;2022-07-22T12:19:10;10.70;;;9.23;;
36669;SDS011;22662;47.412;9.742;2022-07-22T12:21:51;9.20;;;8.30;;
36669;SDS011;22662;47.412;9.742;2022-07-22T12:24:26;9.50;;;8.52;;
36669;SDS011;22662;47.412;9.742;2022-07-22T12:26:52;9.25;;;8.27;;
36669;SDS011;22662;47.412;9.742;2022-07-22T12:32:02;11.52;;;8.88;;
36669;SDS011;22662;47.412;9.742;2022-07-22T12:36:59;9.18;;;8.38;;
36669;SDS011;22662;47.412;9.742;2022-07-22T12:39:27;9.75;;;8.85;;
36669;SDS011;22662;47.412;9.742;2022-07-22T12:41:54;9.02;;;8.23;;
36669;SDS011;22662;47.412;9.742;2022-07-22T12:46:47;9.27;;;8.38;;
36669;SDS011;22662;47.412;9.742;2022-07-22T12:49:16;8.85;;;8.05;;
36669;SDS011;22662;47.412;9.742;2022-07-22T12:54:31;9.32;;;8.05;;
36669;SDS011;22662;47.412;9.742;2022-07-22T12:56:58;8.55;;;7.70;;
36669;SDS011;22662;47.412;9.742;2022-07-22T12:59:23;8.95;;;8.15;;
36669;SDS011;22662;47.412;9.742;2022-07-22T13:01:49;12.02;;;7.95;;
36669;SDS011;22662;47.412;9.742;2022-07-22T13:04:15;9.40;;;8.50;;
36669;SDS011;22662;47.412;9.742;2022-07-22T13:06:40;9.10;;;8.20;;
36669;SDS011;22662;47.412;9.742;2022-07-22T13:09:06;8.75;;;7.85;;
36669;SDS011;22662;47.412;9.742;2022-07-22T13:11:32;11.77;;;8.23;;
36669;SDS011;22662;47.412;9.742;2022-07-22T13:14:04;8.98;;;8.10;;
36669;SDS011;22662;47.412;9.742;2022-07-22T13:16:30;9.02;;;8.20;;
36669;SDS011;22662;47.412;9.742;2022-07-22T13:18:56;8.95;;;8.15;;
36669;SDS011;22662;47.412;9.742;2022-07-22T13:21:22;8.90;;;8.00;;
36669;SDS011;22662;47.412;9.742;2022-07-22T13:23:48;9.15;;;8.30;;
36669;SDS011;22662;47.412;9.742;2022-07-22T13:26:13;8.40;;;7.68;;
36669;SDS011;22662;47.412;9.742;2022-07-22T13:28:40;9.13;;;8.25;;
36669;SDS011;22662;47.412;9.742;2022-07-22T13:31:05;8.85;;;7.75;;
36669;SDS011;22662;47.412;9.742;2022-07-22T13:33:31;8.98;;;8.23;;
36669;SDS011;22662;47.412;9.742;2022-07-22T13:35:57;8.60;;;7.85;;
36669;SDS011;22662;47.412;9.742;2022-07-22T13:38:23;8.63;;;7.78;;
36669;SDS011;22662;47.412;9.742;2022-07-22T13:40:48;8.73;;;7.88;;
36669;SDS011;22662;47.412;9.742;2022-07-22T13:43:17;9.15;;;8.35;;
36669;SDS011;22662;47.412;9.742;2022-07-22T13:45:44;8.23;;;7.43;;
36669;SDS011;22662;47.412;9.742;2022-07-22T13:48:10;8.90;;;7.55;;
36669;SDS011;22662;47.412;9.742;2022-07-22T13:50:36;13.45;;;8.30;;
36669;SDS011;22662;47.412;9.742;2022-07-22T13:53:02;8.88;;;8.05;;
36669;SDS011;22662;47.412;9.742;2022-07-22T13:55:27;8.88;;;8.00;;
36669;SDS011;22662;47.412;9.742;2022-07-22T13:57:55;8.73;;;7.93;;
36669;SDS011;22662;47.412;9.742;2022-07-22T14:00:22;8.45;;;7.65;;
36669;SDS011;22662;47.412;9.742;2022-07-22T14:02:51;8.63;;;7.82;;
36669;SDS011;22662;47.412;9.742;2022-07-22T14:05:17;8.57;;;7.78;;
36669;SDS011;22662;47.412;9.742;2022-07-22T14:07:43;7.82;;;7.03;;
36669;SDS011;22662;47.412;9.742;2022-07-22T14:10:10;8.43;;;7.68;;
36669;SDS011;22662;47.412;9.742;2022-07-22T14:12:36;8.52;;;7.72;;
36669;SDS011;22662;47.412;9.742;2022-07-22T14:15:02;8.20;;;7.40;;
36669;SDS011;22662;47.412;9.742;2022-07-22T14:17:29;8.18;;;7.43;;
36669;SDS011;22662;47.412;9.742;2022-07-22T14:19:54;7.75;;;7.07;;
36669;SDS011;22662;47.412;9.742;2022-07-22T14:22:20;8.80;;;7.90;;
36669;SDS011;22662;47.412;9.742;2022-07-22T14:24:46;7.70;;;6.95;;
36669;SDS011;22662;47.412;9.742;2022-07-22T14:27:12;8.15;;;7.10;;
36669;SDS011;22662;47.412;9.742;2022-07-22T14:29:38;9.80;;;8.10;;
36669;SDS011;22662;47.412;9.742;2022-07-22T14:32:04;7.63;;;6.75;;
36669;SDS011;22662;47.412;9.742;2022-07-22T14:34:30;6.82;;;6.20;;
36669;SDS011;22662;47.412;9.742;2022-07-22T14:36:56;7.38;;;6.68;;
36669;SDS011;22662;47.412;9.742;2022-07-22T14:39:22;7.47;;;6.78;;
36669;SDS011;22662;47.412;9.742;2022-07-22T14:41:47;6.90;;;6.20;;
36669;SDS011;22662;47.412;9.742;2022-07-22T14:44:13;7.32;;;6.63;;
36669;SDS011;22662;47.412;9.742;2022-07-22T14:46:39;7.65;;;6.50;;
36669;SDS011;22662;47.412;9.742;2022-07-22T14:49:05;6.68;;;6.07;;
36669;SDS011;22662;47.412;9.742;2022-07-22T14:51:31;6.22;;;5.63;;
36669;SDS011;22662;47.412;9.742;2022-07-22T14:53:57;6.55;;;6.00;;
36669;SDS011;22662;47.412;9.742;2022-07-22T14:56:23;8.57;;;6.05;;
36669;SDS011;22662;47.412;9.742;2022-07-22T14:58:49;8.60;;;6.35;;
36669;SDS011;22662;47.412;9.742;2022-07-22T15:01:14;5.95;;;5.45;;
36669;SDS011;22662;47.412;9.742;2022-07-22T15:03:41;6.40;;;5.80;;